Time;durP1;ratioP1;P1;durP2;ratioP2;P2;SDS_P1;SDS_P2;PMS_P1;PMS_P2;Temp;Humidity;BMP_temperature;BMP_pressure;BME280_temperature;BME280_humidity;BME280_pressure;Samples;Min_cycle;Max_cycle;Signal;HPM_P1;HPM_P2
2022/03/30 00:01:14;;;;;;;28.75;13.57;;;5.80;99.90;;;;;;5011214;28;20395;-34
2022/03/30 00:03:41;;;;;;;25.67;11.93;;;5.80;99.90;;;;;;5011464;28;20142;-34
2022/03/30 00:06:07;;;;;;;31.10;13.27;;;5.90;99.90;;;;;;5013415;28;20060;-34
2022/03/30 00:08:35;;;;;;;33.55;13.70;;;5.80;99.90;;;;;;5012793;28;20058;-34
2022/03/30 00:11:02;;;;;;;33.95;14.15;;;5.90;99.90;;;;;;5012260;28;20117;-34
2022/03/30 00:13:29;;;;;;;30.35;13.40;;;5.90;99.90;;;;;;5012775;28;20056;-34
2022/03/30 00:15:56;;;;;;;29.00;13.18;;;5.90;99.90;;;;;;5011662;28;20548;-34
2022/03/30 00:18:23;;;;;;;31.70;15.10;;;5.90;99.90;;;;;;5012753;28;20041;-34
2022/03/30 00:20:50;;;;;;;26.45;12.07;;;5.90;99.90;;;;;;5012205;28;20050;-34
2022/03/30 00:23:16;;;;;;;28.52;12.93;;;5.90;99.90;;;;;;5011411;28;20053;-35
2022/03/30 00:25:44;;;;;;;28.85;13.38;;;5.90;99.90;;;;;;5011981;28;20052;-35
2022/03/30 00:28:11;;;;;;;32.28;13.43;;;5.80;99.90;;;;;;5012796;28;20374;-35
2022/03/30 00:30:38;;;;;;;35.45;14.48;;;5.80;99.90;;;;;;5004843;28;20125;-35
2022/03/30 00:33:05;;;;;;;27.20;14.10;;;5.80;99.90;;;;;;5009960;28;20140;-34
2022/03/30 00:35:32;;;;;;;24.38;13.07;;;5.70;99.90;;;;;;5012278;28;20054;-34
2022/03/30 00:37:58;;;;;;;28.05;12.48;;;5.70;99.90;;;;;;5012067;28;20397;-34
2022/03/30 00:40:25;;;;;;;27.17;13.60;;;5.70;99.90;;;;;;5010612;28;20116;-33
2022/03/30 00:42:53;;;;;;;32.42;13.75;;;5.60;99.90;;;;;;5011666;28;20045;-33
2022/03/30 00:45:21;;;;;;;27.80;13.98;;;5.60;99.90;;;;;;5011278;28;20381;-34
2022/03/30 00:47:48;;;;;;;23.88;12.52;;;5.60;99.90;;;;;;5009107;28;20054;-34
2022/03/30 00:50:16;;;;;;;33.10;13.75;;;5.60;99.90;;;;;;5010478;28;20389;-34
2022/03/30 00:52:43;;;;;;;36.50;16.23;;;5.60;99.90;;;;;;5012322;28;20038;-35
2022/03/30 00:55:10;;;;;;;31.05;14.27;;;5.60;99.90;;;;;;5011720;28;20137;-34
2022/03/30 00:57:38;;;;;;;36.63;14.85;;;5.60;99.90;;;;;;5011015;28;20042;-35
2022/03/30 01:00:08;;;;;;;30.55;13.07;;;5.60;99.90;;;;;;5012467;28;20046;-35
2022/03/30 01:02:36;;;;;;;30.10;14.45;;;5.50;99.90;;;;;;5011050;28;20125;-34
2022/03/30 01:05:02;;;;;;;27.48;12.88;;;5.50;99.90;;;;;;5012262;28;20046;-34
2022/03/30 01:07:29;;;;;;;33.92;15.18;;;5.50;99.90;;;;;;5012018;28;20046;-34
2022/03/30 01:09:56;;;;;;;31.38;14.18;;;5.50;99.90;;;;;;5012318;28;20116;-34
2022/03/30 01:12:22;;;;;;;34.78;14.80;;;5.50;99.90;;;;;;5012069;28;20133;-34
2022/03/30 01:14:49;;;;;;;34.85;14.95;;;5.50;99.90;;;;;;5011461;28;20050;-33
2022/03/30 01:17:17;;;;;;;29.10;14.38;;;5.50;99.90;;;;;;5014379;28;20478;-33
2022/03/30 01:19:44;;;;;;;32.30;13.43;;;5.50;99.90;;;;;;5016186;28;20054;-34
2022/03/30 01:22:12;;;;;;;27.58;15.02;;;5.40;99.90;;;;;;5015579;28;20052;-33
2022/03/30 01:24:38;;;;;;;28.48;14.45;;;5.40;99.90;;;;;;5014766;28;20056;-33
2022/03/30 01:27:05;;;;;;;34.45;15.15;;;5.40;99.90;;;;;;5014858;28;20057;-34
2022/03/30 01:32:29;;;;;;;26.85;14.30;;;5.40;99.90;;;;;;5017401;28;20042;-35
2022/03/30 01:34:56;;;;;;;36.45;16.20;;;5.40;99.90;;;;;;4996472;28;20050;-34
2022/03/30 01:37:24;;;;;;;35.25;16.17;;;5.30;99.90;;;;;;5003444;28;20052;-34
2022/03/30 01:39:51;;;;;;;38.17;15.85;;;5.30;99.90;;;;;;5013685;28;20052;-34
2022/03/30 01:42:18;;;;;;;36.58;17.25;;;5.30;99.90;;;;;;5013784;28;20137;-35
2022/03/30 01:44:44;;;;;;;30.88;15.82;;;5.30;99.90;;;;;;5015984;28;20093;-34
2022/03/30 01:47:12;;;;;;;33.15;14.57;;;5.30;99.90;;;;;;5014510;28;20121;-34
2022/03/30 01:49:39;;;;;;;30.48;14.73;;;5.30;99.90;;;;;;5015261;28;20474;-34
2022/03/30 01:52:07;;;;;;;32.97;16.40;;;5.30;99.90;;;;;;5014001;28;20062;-33
2022/03/30 01:54:37;;;;;;;33.65;16.02;;;5.30;99.90;;;;;;5015230;28;20390;-34
2022/03/30 01:57:04;;;;;;;30.60;14.90;;;5.30;99.90;;;;;;5014915;28;20042;-33
2022/03/30 01:59:31;;;;;;;45.08;17.98;;;5.40;99.90;;;;;;5014113;28;20096;-34
2022/03/30 02:01:58;;;;;;;40.50;18.10;;;5.40;99.90;;;;;;5014524;28;20046;-33
2022/03/30 02:04:24;;;;;;;37.88;17.80;;;5.40;99.90;;;;;;5014363;28;20080;-34
2022/03/30 02:06:51;;;;;;;34.03;16.90;;;5.40;99.90;;;;;;5015167;28;20038;-33
2022/03/30 02:09:18;;;;;;;41.10;18.83;;;5.40;99.90;;;;;;5015391;28;20049;-33
2022/03/30 02:11:46;;;;;;;27.27;15.50;;;5.40;99.90;;;;;;5013042;28;20046;-33
2022/03/30 02:14:13;;;;;;;31.65;16.52;;;5.40;99.90;;;;;;5013083;28;20140;-34
2022/03/30 02:16:39;;;;;;;38.50;18.35;;;5.40;99.90;;;;;;5014398;28;20409;-34
2022/03/30 02:19:06;;;;;;;44.00;19.67;;;5.40;99.90;;;;;;5013971;28;20050;-34
2022/03/30 02:21:34;;;;;;;45.78;20.67;;;5.40;99.90;;;;;;5014517;28;20053;-34
2022/03/30 02:24:01;;;;;;;41.67;18.60;;;5.40;99.90;;;;;;5014381;28;20050;-34
2022/03/30 02:26:30;;;;;;;45.45;18.83;;;5.40;99.90;;;;;;5014498;28;20462;-34
2022/03/30 02:28:58;;;;;;;52.90;19.73;;;5.40;99.90;;;;;;5011414;28;20057;-34
2022/03/30 02:31:25;;;;;;;54.47;20.65;;;5.40;99.90;;;;;;5015018;28;20056;-33
2022/03/30 02:33:51;;;;;;;43.35;18.98;;;5.40;99.90;;;;;;5014235;28;20474;-34
2022/03/30 02:36:18;;;;;;;35.90;16.55;;;5.40;99.90;;;;;;5013975;28;20060;-34
2022/03/30 02:38:45;;;;;;;37.85;17.27;;;5.40;99.90;;;;;;5013549;28;20046;-34
2022/03/30 02:41:12;;;;;;;45.40;17.10;;;5.40;99.90;;;;;;5013997;28;20084;-34
2022/03/30 02:43:39;;;;;;;36.85;16.38;;;5.40;99.90;;;;;;5014466;28;20045;-35
2022/03/30 02:46:07;;;;;;;42.63;17.27;;;5.50;99.90;;;;;;5013926;28;20135;-34
2022/03/30 02:48:35;;;;;;;36.10;17.33;;;5.50;99.90;;;;;;5012646;28;20041;-34
2022/03/30 02:51:03;;;;;;;45.15;18.00;;;5.50;99.90;;;;;;5014459;28;20050;-34
2022/03/30 02:53:30;;;;;;;36.42;17.48;;;5.50;99.90;;;;;;5012865;28;20500;-35
2022/03/30 02:55:56;;;;;;;32.03;15.63;;;5.50;99.90;;;;;;5013932;28;20390;-34
2022/03/30 02:58:23;;;;;;;38.63;16.45;;;5.50;99.90;;;;;;5013711;28;20077;-34
2022/03/30 03:00:50;;;;;;;32.70;16.60;;;5.60;99.90;;;;;;5013187;28;20072;-35
2022/03/30 03:03:18;;;;;;;42.58;18.00;;;5.60;99.90;;;;;;5013948;28;20141;-35
2022/03/30 03:05:44;;;;;;;39.10;17.58;;;5.60;99.90;;;;;;5012775;28;20034;-36
2022/03/30 03:08:12;;;;;;;41.00;17.27;;;5.60;99.90;;;;;;5013079;28;20116;-34
2022/03/30 03:10:39;;;;;;;35.17;17.17;;;5.60;99.90;;;;;;5012531;28;20133;-34
2022/03/30 03:13:06;;;;;;;39.78;18.23;;;5.60;99.90;;;;;;5013216;28;20056;-34
2022/03/30 03:15:33;;;;;;;33.20;17.08;;;5.60;99.90;;;;;;5012620;28;20050;-34
2022/03/30 03:18:00;;;;;;;34.97;18.05;;;5.70;99.90;;;;;;5012640;28;20116;-35
2022/03/30 03:20:28;;;;;;;44.85;18.00;;;5.70;99.90;;;;;;5013137;28;20391;-35
2022/03/30 03:22:55;;;;;;;35.83;16.38;;;5.70;99.90;;;;;;5013205;28;20052;-35
2022/03/30 03:25:21;;;;;;;43.17;17.70;;;5.70;99.90;;;;;;5011578;28;20046;-34
2022/03/30 03:27:48;;;;;;;37.42;17.48;;;5.70;99.90;;;;;;5012397;28;20132;-35
2022/03/30 03:30:15;;;;;;;38.33;17.05;;;5.70;99.90;;;;;;5010869;28;20054;-34
2022/03/30 03:32:42;;;;;;;43.33;19.02;;;5.70;99.90;;;;;;5010860;28;20042;-34
2022/03/30 03:35:09;;;;;;;32.85;15.98;;;5.70;99.90;;;;;;5013238;28;20430;-35
2022/03/30 03:37:37;;;;;;;32.63;16.13;;;5.70;99.90;;;;;;5011463;28;20054;-34
2022/03/30 03:40:05;;;;;;;44.30;19.30;;;5.70;99.90;;;;;;5012314;28;20046;-35
2022/03/30 03:42:32;;;;;;;35.03;17.02;;;5.70;99.90;;;;;;4999144;28;20049;-34
2022/03/30 03:44:59;;;;;;;34.47;17.70;;;5.70;99.90;;;;;;5012290;28;20119;-34
2022/03/30 03:47:26;;;;;;;34.88;17.23;;;5.60;99.90;;;;;;5011183;28;20053;-34
2022/03/30 03:49:53;;;;;;;47.55;20.33;;;5.60;99.90;;;;;;5011061;28;20152;-34
2022/03/30 03:52:19;;;;;;;35.75;18.38;;;5.60;99.90;;;;;;5008271;28;20572;-35
2022/03/30 03:54:47;;;;;;;39.20;17.40;;;5.60;99.90;;;;;;5025748;28;20064;-35
2022/03/30 03:57:14;;;;;;;40.78;19.50;;;5.60;99.90;;;;;;5010486;28;20084;-34
2022/03/30 03:59:41;;;;;;;36.65;17.23;;;5.60;99.90;;;;;;5010587;28;20086;-35
2022/03/30 04:02:07;;;;;;;46.78;19.02;;;5.60;99.90;;;;;;5012500;28;20046;-34
2022/03/30 04:04:34;;;;;;;33.75;16.85;;;5.60;99.90;;;;;;5002013;28;20042;-34
2022/03/30 04:07:01;;;;;;;35.60;17.52;;;5.60;99.90;;;;;;4993720;28;20082;-35
2022/03/30 04:09:28;;;;;;;39.30;16.95;;;5.60;99.90;;;;;;5005493;28;20052;-34
2022/03/30 04:11:56;;;;;;;41.63;17.92;;;5.60;99.90;;;;;;5013305;28;20052;-35
2022/03/30 04:14:22;;;;;;;37.75;16.63;;;5.60;99.90;;;;;;5013206;28;20045;-34
2022/03/30 04:16:49;;;;;;;41.40;18.38;;;5.60;99.90;;;;;;5011879;28;20056;-34
2022/03/30 04:19:16;;;;;;;36.58;15.90;;;5.60;99.90;;;;;;5013238;28;20132;-34
2022/03/30 04:21:43;;;;;;;32.05;14.55;;;5.60;99.90;;;;;;5010848;28;20053;-34
2022/03/30 04:24:09;;;;;;;41.35;17.25;;;5.60;99.90;;;;;;5006164;28;20064;-34
2022/03/30 04:26:36;;;;;;;37.47;16.52;;;5.70;99.90;;;;;;5007643;28;20044;-35
2022/03/30 04:29:04;;;;;;;36.20;17.25;;;5.60;99.90;;;;;;5013004;28;20042;-34
2022/03/30 04:31:31;;;;;;;38.38;17.20;;;5.70;99.90;;;;;;5012033;28;20048;-34
2022/03/30 04:33:58;;;;;;;40.70;16.83;;;5.70;99.90;;;;;;5012211;28;20045;-34
2022/03/30 04:36:24;;;;;;;39.05;17.45;;;5.70;99.90;;;;;;5012802;28;20068;-35
2022/03/30 04:38:51;;;;;;;41.88;18.00;;;5.60;99.90;;;;;;5011654;28;20064;-33
2022/03/30 04:41:18;;;;;;;35.17;16.67;;;5.60;99.90;;;;;;5012707;28;20485;-34
2022/03/30 04:43:45;;;;;;;32.38;15.95;;;5.70;99.90;;;;;;5012409;28;20389;-34
2022/03/30 04:46:13;;;;;;;35.28;16.75;;;5.70;99.90;;;;;;5011834;28;20060;-34
2022/03/30 04:48:41;;;;;;;38.80;16.65;;;5.70;99.90;;;;;;5011395;28;20045;-34
2022/03/30 04:51:08;;;;;;;43.25;16.17;;;5.70;99.90;;;;;;5011649;28;20056;-34
2022/03/30 04:53:34;;;;;;;38.05;16.67;;;5.70;99.90;;;;;;5010393;28;20384;-34
2022/03/30 04:56:01;;;;;;;39.80;16.52;;;5.70;99.90;;;;;;4999886;28;20054;-34
2022/03/30 04:58:28;;;;;;;35.83;16.27;;;5.70;99.90;;;;;;5011527;28;20054;-34
2022/03/30 05:00:54;;;;;;;44.47;17.25;;;5.70;99.90;;;;;;5011032;28;20046;-34
2022/03/30 05:03:23;;;;;;;36.90;16.33;;;5.70;99.90;;;;;;5011873;28;20466;-34
2022/03/30 05:05:49;;;;;;;38.38;16.88;;;5.70;99.90;;;;;;5010975;28;20054;-35
2022/03/30 05:08:17;;;;;;;40.15;17.80;;;5.70;99.90;;;;;;5009141;28;20048;-35
2022/03/30 05:10:46;;;;;;;38.70;16.45;;;5.70;99.90;;;;;;5011426;28;20104;-34
2022/03/30 05:13:13;;;;;;;38.42;15.50;;;5.80;99.90;;;;;;5008049;28;20058;-35
2022/03/30 05:15:39;;;;;;;34.70;15.45;;;5.80;99.90;;;;;;5010124;28;20100;-34
2022/03/30 05:18:07;;;;;;;37.55;16.30;;;5.80;99.90;;;;;;5012862;28;20049;-34
2022/03/30 05:20:35;;;;;;;34.70;16.15;;;5.80;99.90;;;;;;5012512;28;20058;-34
2022/03/30 05:23:02;;;;;;;35.28;15.88;;;5.80;99.90;;;;;;5011086;28;21538;-34
2022/03/30 05:25:29;;;;;;;31.20;14.65;;;5.80;99.90;;;;;;5012078;28;20050;-35
2022/03/30 05:27:56;;;;;;;30.05;15.13;;;5.80;99.90;;;;;;5011103;28;20057;-35
2022/03/30 05:30:23;;;;;;;36.75;14.65;;;5.80;99.90;;;;;;5011763;28;20044;-35
2022/03/30 05:32:50;;;;;;;28.65;14.68;;;5.70;99.90;;;;;;5011709;28;20387;-34
2022/03/30 05:35:17;;;;;;;26.08;11.60;;;5.80;99.90;;;;;;5011686;28;20470;-34
2022/03/30 05:37:47;;;;;;;13.10;7.40;;;5.70;99.90;;;;;;5011493;28;20129;-34
2022/03/30 05:40:15;;;;;;;13.33;6.10;;;5.70;99.90;;;;;;5012350;28;20060;-34
2022/03/30 05:42:42;;;;;;;7.63;4.50;;;5.70;99.90;;;;;;5012158;28;20470;-34
2022/03/30 05:45:09;;;;;;;4.22;1.70;;;5.70;99.90;;;;;;5011719;28;20137;-34
2022/03/30 05:47:35;;;;;;;4.13;1.48;;;5.70;99.90;;;;;;5012535;28;20056;-34
2022/03/30 05:50:03;;;;;;;4.68;1.25;;;5.70;99.90;;;;;;5012600;28;20460;-33
2022/03/30 05:52:29;;;;;;;8.13;1.20;;;5.70;99.90;;;;;;5011878;28;20064;-34
2022/03/30 05:54:57;;;;;;;2.50;0.90;;;5.70;99.90;;;;;;5009714;28;20045;-34
2022/03/30 05:57:24;;;;;;;2.92;1.23;;;5.70;99.90;;;;;;5010947;28;20496;-34
2022/03/30 05:59:51;;;;;;;5.15;0.88;;;5.70;99.90;;;;;;5011713;28;20398;-33
2022/03/30 06:02:18;;;;;;;2.03;0.88;;;5.70;99.90;;;;;;5013460;28;20485;-33
2022/03/30 06:04:46;;;;;;;10.55;2.38;;;5.70;99.90;;;;;;5015865;28;20045;-34
2022/03/30 06:07:12;;;;;;;2.85;1.20;;;5.70;99.90;;;;;;5014988;28;20389;-34
2022/03/30 06:09:39;;;;;;;1.95;1.08;;;5.70;99.90;;;;;;5015624;28;20104;-34
2022/03/30 06:12:08;;;;;;;3.80;1.63;;;5.70;99.90;;;;;;5014724;28;20058;-34
2022/03/30 06:14:35;;;;;;;2.13;1.17;;;5.70;99.90;;;;;;5014050;28;20136;-34
2022/03/30 06:17:03;;;;;;;2.42;1.50;;;5.70;99.90;;;;;;5014549;28;20056;-34
2022/03/30 06:19:30;;;;;;;2.92;1.45;;;5.70;99.90;;;;;;5015443;28;20064;-34
2022/03/30 06:21:57;;;;;;;3.00;1.80;;;5.70;99.90;;;;;;5014864;28;20458;-34
2022/03/30 06:24:24;;;;;;;3.15;1.58;;;5.70;99.90;;;;;;5014183;28;20046;-35
2022/03/30 06:26:51;;;;;;;3.85;1.80;;;5.70;99.90;;;;;;5015207;28;20050;-34
2022/03/30 06:29:19;;;;;;;3.75;1.83;;;5.70;99.90;;;;;;5015222;28;20057;-34
2022/03/30 06:31:46;;;;;;;2.92;1.77;;;5.80;99.90;;;;;;5012272;28;20142;-34
2022/03/30 06:34:12;;;;;;;4.95;1.80;;;5.70;99.90;;;;;;5014211;28;20061;-34
2022/03/30 06:36:39;;;;;;;5.78;1.90;;;5.80;99.90;;;;;;5030575;28;20054;-35
2022/03/30 06:39:06;;;;;;;4.53;2.05;;;5.80;99.90;;;;;;5015039;28;20393;-34
2022/03/30 06:41:32;;;;;;;4.32;1.95;;;5.80;99.90;;;;;;5014985;28;20052;-34
2022/03/30 06:43:59;;;;;;;4.93;2.67;;;5.90;99.90;;;;;;5014593;28;20405;-34
2022/03/30 06:46:28;;;;;;;3.42;2.10;;;5.90;99.90;;;;;;5014739;28;20466;-35
2022/03/30 06:48:55;;;;;;;4.78;2.60;;;6.00;99.90;;;;;;5014768;28;20050;-35
2022/03/30 06:51:22;;;;;;;3.88;2.47;;;6.00;99.90;;;;;;5014384;28;20398;-34
2022/03/30 06:53:48;;;;;;;3.90;2.63;;;6.00;99.90;;;;;;5013590;28;20058;-34
2022/03/30 06:56:15;;;;;;;3.75;2.45;;;6.00;99.90;;;;;;5014499;28;20042;-34
2022/03/30 06:58:42;;;;;;;7.15;2.60;;;6.00;99.90;;;;;;5029663;28;20073;-34
2022/03/30 07:01:09;;;;;;;3.88;2.75;;;6.10;99.90;;;;;;5013487;28;20168;-34
2022/03/30 07:03:38;;;;;;;6.18;2.22;;;6.10;99.90;;;;;;5014568;28;20052;-34
2022/03/30 07:06:05;;;;;;;4.78;2.33;;;6.10;99.90;;;;;;5014806;28;20474;-34
2022/03/30 07:11:15;;;;;;;4.18;2.17;;;6.20;99.90;;;;;;5014047;28;20049;-34
2022/03/30 07:13:42;;;;;;;3.25;1.85;;;6.20;99.90;;;;;;5013008;28;20042;-33
2022/03/30 07:16:09;;;;;;;3.80;1.95;;;6.30;99.90;;;;;;5014558;28;20050;-34
2022/03/30 07:18:37;;;;;;;3.15;2.20;;;6.30;99.90;;;;;;5013074;28;20045;-34
2022/03/30 07:21:04;;;;;;;3.80;3.13;;;6.40;99.90;;;;;;5014463;28;20401;-34
2022/03/30 07:23:30;;;;;;;5.00;3.13;;;6.40;99.90;;;;;;5013566;28;20046;-34
2022/03/30 07:26:00;;;;;;;6.47;3.08;;;6.40;99.90;;;;;;5012887;28;20050;-34
2022/03/30 07:28:26;;;;;;;5.18;2.50;;;6.50;99.90;;;;;;5013390;28;20054;-34
2022/03/30 07:30:53;;;;;;;5.95;2.60;;;6.50;99.90;;;;;;5003208;28;20045;-34
2022/03/30 07:33:20;;;;;;;4.70;2.58;;;6.50;99.90;;;;;;4994568;28;20042;-34
2022/03/30 07:35:48;;;;;;;5.10;2.65;;;6.50;99.90;;;;;;4993527;28;20073;-34
2022/03/30 07:38:15;;;;;;;4.80;2.47;;;6.50;99.90;;;;;;4994395;28;20046;-34
2022/03/30 07:40:42;;;;;;;3.78;2.10;;;6.50;99.90;;;;;;4993252;28;20046;-33
2022/03/30 07:43:09;;;;;;;4.22;2.30;;;6.60;99.90;;;;;;4993253;28;20087;-34
2022/03/30 07:45:36;;;;;;;4.32;2.15;;;6.60;99.90;;;;;;5012375;28;20054;-33
2022/03/30 07:48:02;;;;;;;9.07;2.58;;;6.60;99.90;;;;;;5013525;28;20073;-34
2022/03/30 07:50:29;;;;;;;6.35;2.55;;;6.50;99.90;;;;;;5012415;28;20504;-34
2022/03/30 07:52:57;;;;;;;4.03;2.47;;;6.60;99.90;;;;;;5012824;28;20075;-35
2022/03/30 07:55:24;;;;;;;5.63;2.28;;;6.60;99.90;;;;;;5012719;28;20049;-34
2022/03/30 07:57:51;;;;;;;4.88;2.40;;;6.70;99.90;;;;;;5013741;28;20050;-34
2022/03/30 08:00:18;;;;;;;3.65;2.13;;;6.80;99.90;;;;;;5013611;28;20548;-35
2022/03/30 08:02:45;;;;;;;11.23;2.60;;;6.90;99.90;;;;;;5013436;28;20064;-34
2022/03/30 08:05:13;;;;;;;5.78;2.50;;;6.90;99.90;;;;;;5011670;28;20045;-35
2022/03/30 08:07:39;;;;;;;5.05;2.28;;;7.00;99.90;;;;;;5012397;28;20386;-34
2022/03/30 08:10:09;;;;;;;5.38;2.67;;;7.10;99.90;;;;;;5013302;28;20050;-35
2022/03/30 08:12:36;;;;;;;4.90;2.20;;;7.10;99.90;;;;;;5013455;28;20042;-34
2022/03/30 08:15:02;;;;;;;6.28;2.63;;;7.20;99.90;;;;;;5013007;28;20049;-35
2022/03/30 08:17:29;;;;;;;5.47;2.45;;;7.20;99.90;;;;;;5013037;28;20042;-34
2022/03/30 08:19:57;;;;;;;7.72;2.95;;;7.30;99.90;;;;;;5012924;28;20473;-34
2022/03/30 08:22:25;;;;;;;7.47;2.33;;;7.30;99.90;;;;;;5011538;28;20042;-34
2022/03/30 08:24:52;;;;;;;4.57;2.70;;;7.40;99.90;;;;;;5012498;28;20046;-35
2022/03/30 08:27:21;;;;;;;6.45;3.25;;;7.40;99.90;;;;;;5011648;28;20057;-35
2022/03/30 08:29:48;;;;;;;10.02;3.33;;;7.50;99.90;;;;;;5011144;28;20048;-35
2022/03/30 08:32:15;;;;;;;6.28;3.45;;;7.50;99.90;;;;;;5012427;28;20466;-34
2022/03/30 08:34:42;;;;;;;9.75;3.90;;;7.60;99.90;;;;;;5012100;28;20049;-34
2022/03/30 08:37:09;;;;;;;7.78;3.97;;;7.70;99.90;;;;;;5012801;28;20506;-35
2022/03/30 08:39:36;;;;;;;7.25;4.40;;;7.90;99.90;;;;;;5012933;28;20045;-34
2022/03/30 08:42:03;;;;;;;7.90;4.60;;;7.70;99.90;;;;;;5012802;28;20485;-35
2022/03/30 08:44:31;;;;;;;9.77;4.85;;;7.70;99.90;;;;;;5012724;28;20053;-34
2022/03/30 08:46:57;;;;;;;9.32;4.18;;;7.60;99.90;;;;;;5012441;28;20046;-34
2022/03/30 08:49:24;;;;;;;7.68;4.25;;;7.60;99.90;;;;;;5011744;28;20152;-34
2022/03/30 08:51:51;;;;;;;7.57;3.95;;;7.70;99.90;;;;;;5012307;28;20042;-34
2022/03/30 08:54:18;;;;;;;6.57;4.13;;;7.70;99.90;;;;;;5011130;28;20042;-34
2022/03/30 08:56:45;;;;;;;7.95;4.00;;;7.80;99.90;;;;;;5011631;28;20038;-35
2022/03/30 08:59:13;;;;;;;10.10;4.32;;;7.90;99.90;;;;;;5011823;28;20056;-34
2022/03/30 09:01:41;;;;;;;5.60;3.80;;;7.90;99.90;;;;;;5011461;28;20394;-34
2022/03/30 09:04:10;;;;;;;8.30;3.70;;;7.90;99.80;;;;;;5012135;28;20052;-35
2022/03/30 09:06:37;;;;;;;7.35;3.25;;;7.90;99.60;;;;;;5012087;28;20489;-34
2022/03/30 09:09:04;;;;;;;8.45;3.60;;;8.00;99.30;;;;;;5012781;28;20057;-34
2022/03/30 09:11:37;;;;;;;6.15;3.50;;;8.00;99.10;;;;;;5012714;28;20049;-34
2022/03/30 09:14:04;;;;;;;5.80;2.67;;;8.10;99.00;;;;;;5012012;28;20042;-33
2022/03/30 09:16:39;;;;;;;5.70;2.70;;;8.10;98.10;;;;;;5012336;28;20100;-34
2022/03/30 09:19:08;;;;;;;12.57;2.10;;;8.10;97.50;;;;;;4997200;28;20108;-34
2022/03/30 09:21:45;;;;;;;8.25;2.28;;;8.10;97.30;;;;;;5009092;28;20065;-34
2022/03/30 09:24:11;;;;;;;5.55;1.90;;;8.10;96.50;;;;;;5010142;28;20037;-35
2022/03/30 09:26:38;;;;;;;5.85;2.03;;;8.20;96.90;;;;;;5010328;28;20400;-34
2022/03/30 09:29:05;;;;;;;3.85;2.15;;;8.30;96.80;;;;;;5007805;28;20054;-34
2022/03/30 09:31:32;;;;;;;5.78;3.70;;;8.40;96.80;;;;;;5011103;28;20052;-34
2022/03/30 09:34:00;;;;;;;7.13;3.70;;;8.40;96.20;;;;;;5010759;28;20133;-34
2022/03/30 09:36:29;;;;;;;5.40;3.83;;;8.40;95.70;;;;;;5012474;28;20458;-34
2022/03/30 09:38:55;;;;;;;9.52;4.95;;;8.30;95.60;;;;;;5014964;28;20064;-34
2022/03/30 09:41:22;;;;;;;9.77;4.80;;;8.20;95.60;;;;;;5013568;28;20347;-34
2022/03/30 09:43:49;;;;;;;12.48;4.65;;;8.20;95.80;;;;;;5015328;28;20302;-34
2022/03/30 09:46:16;;;;;;;8.40;4.20;;;8.20;96.00;;;;;;5013931;28;20052;-33
2022/03/30 09:48:49;;;;;;;7.55;4.22;;;8.20;96.30;;;;;;5014492;28;20053;-33
2022/03/30 09:51:16;;;;;;;6.53;3.30;;;8.20;96.50;;;;;;5012369;28;20046;-33
2022/03/30 09:53:45;;;;;;;8.27;2.47;;;8.10;97.10;;;;;;5009561;28;20038;-34
2022/03/30 09:56:14;;;;;;;6.13;1.92;;;8.10;97.00;;;;;;5013089;28;20088;-34
2022/03/30 09:58:41;;;;;;;6.55;2.15;;;8.00;97.20;;;;;;5015779;28;20046;-34
2022/03/30 10:01:10;;;;;;;4.28;1.45;;;7.90;97.40;;;;;;5015692;28;20046;-34
2022/03/30 10:03:42;;;;;;;4.65;1.50;;;7.80;97.60;;;;;;5015298;28;20038;-34
2022/03/30 10:06:10;;;;;;;4.15;1.60;;;7.80;98.00;;;;;;5014465;28;20057;-34
2022/03/30 10:08:36;;;;;;;4.57;1.50;;;7.80;98.50;;;;;;5014711;28;20038;-34
2022/03/30 10:11:04;;;;;;;4.15;1.48;;;7.90;98.60;;;;;;5012653;28;20061;-35
2022/03/30 10:13:31;;;;;;;3.90;1.75;;;7.90;98.30;;;;;;5013329;28;20042;-34
2022/03/30 10:15:58;;;;;;;17.42;2.33;;;8.00;98.00;;;;;;5014419;28;20053;-34
2022/03/30 10:18:27;;;;;;;6.03;1.70;;;8.20;97.70;;;;;;5014048;28;20177;-33
2022/03/30 10:21:04;;;;;;;3.17;1.60;;;8.30;97.40;;;;;;5013505;28;20133;-34
2022/03/30 10:23:33;;;;;;;5.85;1.48;;;8.40;97.30;;;;;;5013948;28;20060;-35
2022/03/30 10:26:07;;;;;;;8.35;1.67;;;8.50;97.00;;;;;;5014703;28;20494;-35
2022/03/30 10:28:46;;;;;;;6.20;2.00;;;8.60;96.70;;;;;;5014047;28;20056;-35
2022/03/30 10:31:13;;;;;;;8.35;1.92;;;8.60;96.50;;;;;;5002448;28;20402;-35
2022/03/30 10:33:44;;;;;;;7.53;2.42;;;8.70;96.90;;;;;;5011582;28;20385;-35
2022/03/30 10:36:25;;;;;;;7.47;2.00;;;8.70;96.60;;;;;;5013083;28;20107;-34
2022/03/30 10:39:08;;;;;;;3.60;1.37;;;8.80;95.90;;;;;;5013680;28;20069;-34
2022/03/30 10:41:52;;;;;;;5.50;1.83;;;8.90;95.50;;;;;;5011826;28;20042;-34
2022/03/30 10:44:41;;;;;;;4.95;1.60;;;9.00;95.60;;;;;;5006149;28;20101;-34
2022/03/30 10:47:12;;;;;;;4.07;1.70;;;9.30;94.90;;;;;;5011262;28;20050;-34
2022/03/30 10:49:43;;;;;;;;;;;9.40;95.50;;;;;;5011297;28;20054;-34
2022/03/30 10:52:43;;;;;;;5.47;1.70;;;9.60;94.00;;;;;;5007629;28;19921;-35
2022/03/30 10:55:30;;;;;;;7.05;1.58;;;9.70;94.10;;;;;;5013830;28;20496;-35
2022/03/30 10:58:01;;;;;;;9.95;1.70;;;9.80;92.50;;;;;;5013997;28;20054;-35
2022/03/30 11:00:28;;;;;;;5.40;1.40;;;9.80;93.40;;;;;;5012590;28;20061;-35
2022/03/30 11:03:07;;;;;;;4.30;1.33;;;9.70;92.50;;;;;;5013367;28;20440;-35
2022/03/30 11:05:33;;;;;;;3.92;1.00;;;9.60;91.90;;;;;;5012349;28;20048;-35
2022/03/30 11:08:01;;;;;;;4.13;1.15;;;9.50;92.30;;;;;;5012549;28;20045;-35
2022/03/30 11:10:29;;;;;;;8.38;1.83;;;9.40;92.50;;;;;;5013279;28;20115;-35
2022/03/30 11:13:11;;;;;;;4.72;1.45;;;9.30;92.50;;;;;;5011518;28;20062;-35
2022/03/30 11:16:04;;;;;;;6.95;1.60;;;9.20;92.90;;;;;;5013942;28;20081;-35
2022/03/30 11:18:31;;;;;;;5.00;1.90;;;9.10;93.00;;;;;;5002491;28;20050;-35
2022/03/30 11:21:19;;;;;;;10.95;1.58;;;9.00;93.40;;;;;;5012748;28;20112;-35
2022/03/30 11:24:10;;;;;;;4.28;1.50;;;9.00;93.50;;;;;;5013444;28;20120;-34
2022/03/30 11:27:16;;;;;;;5.20;1.50;;;9.00;92.80;;;;;;5012467;28;20053;-34
2022/03/30 11:29:58;;;;;;;8.52;1.45;;;8.90;93.20;;;;;;5006279;28;20120;-34
2022/03/30 11:32:55;;;;;;;5.45;1.65;;;9.00;93.60;;;;;;5012180;28;20064;-35
2022/03/30 11:35:24;;;;;;;4.32;1.70;;;9.00;92.30;;;;;;5011532;28;20045;-35
2022/03/30 11:38:04;;;;;;;3.92;1.50;;;9.00;93.10;;;;;;5009715;28;20041;-34
2022/03/30 11:40:31;;;;;;;3.10;1.40;;;9.10;92.60;;;;;;5010178;28;20092;-35
2022/03/30 11:42:58;;;;;;;4.88;1.42;;;9.20;92.90;;;;;;5013607;28;20054;-35
2022/03/30 11:45:29;;;;;;;5.97;1.40;;;9.30;92.10;;;;;;5012822;28;20038;-35
2022/03/30 11:47:57;;;;;;;3.88;1.30;;;9.20;92.00;;;;;;5013121;28;20556;-35
2022/03/30 11:50:26;;;;;;;4.90;1.15;;;9.30;91.70;;;;;;5012048;28;20041;-37
2022/03/30 11:52:56;;;;;;;7.57;1.00;;;9.30;91.80;;;;;;5012174;28;20038;-35
2022/03/30 11:55:23;;;;;;;5.63;1.50;;;9.40;91.60;;;;;;5012720;28;20507;-35
2022/03/30 11:57:51;;;;;;;4.68;1.25;;;9.60;91.40;;;;;;5012938;28;20437;-34
2022/03/30 12:00:18;;;;;;;5.63;1.33;;;9.60;91.00;;;;;;5012039;28;20048;-34
2022/03/30 12:02:46;;;;;;;4.18;1.20;;;9.60;91.20;;;;;;5012966;28;20052;-34
2022/03/30 12:05:12;;;;;;;6.07;1.52;;;9.60;91.10;;;;;;5012540;28;20056;-34
2022/03/30 12:07:40;;;;;;;5.60;1.50;;;9.80;91.40;;;;;;5012682;28;20044;-35
2022/03/30 12:10:08;;;;;;;4.60;1.27;;;9.90;91.10;;;;;;5011205;28;20129;-35
2022/03/30 12:12:36;;;;;;;5.70;1.88;;;10.00;90.70;;;;;;5009645;28;20560;-35
2022/03/30 12:15:04;;;;;;;7.57;1.88;;;10.00;90.20;;;;;;5010773;28;20120;-34
2022/03/30 12:17:31;;;;;;;3.67;1.20;;;10.10;89.60;;;;;;5011923;28;20056;-34
2022/03/30 12:20:00;;;;;;;3.60;1.33;;;10.10;88.30;;;;;;5027067;28;20062;-34
2022/03/30 12:22:28;;;;;;;4.45;1.30;;;10.00;86.40;;;;;;5011205;28;20508;-34
2022/03/30 12:24:54;;;;;;;4.88;1.33;;;9.90;86.70;;;;;;5009138;28;20072;-34
2022/03/30 12:27:21;;;;;;;5.40;1.70;;;10.00;87.20;;;;;;5011801;28;20048;-34
2022/03/30 12:29:48;;;;;;;4.28;1.50;;;10.20;87.00;;;;;;5010085;28;20062;-35
2022/03/30 12:32:15;;;;;;;5.55;1.58;;;10.30;86.50;;;;;;5011215;28;20052;-35
2022/03/30 12:34:42;;;;;;;5.55;1.35;;;10.20;85.00;;;;;;5002544;28;20050;-34
2022/03/30 12:37:11;;;;;;;6.72;1.35;;;10.00;85.00;;;;;;5002544;28;20038;-36
2022/03/30 12:39:39;;;;;;;5.30;1.42;;;9.80;85.30;;;;;;5005928;28;20044;-34
2022/03/30 12:42:06;;;;;;;5.65;1.50;;;9.70;85.90;;;;;;5007818;28;20493;-35
2022/03/30 12:44:34;;;;;;;5.60;1.40;;;9.60;86.30;;;;;;5008457;28;20045;-34
2022/03/30 12:47:02;;;;;;;4.28;1.30;;;9.60;86.70;;;;;;5006362;28;20056;-34
2022/03/30 12:49:34;;;;;;;3.97;1.42;;;9.50;85.90;;;;;;5009036;28;20141;-34
2022/03/30 12:52:13;;;;;;;4.35;1.30;;;9.40;86.20;;;;;;5009805;28;20077;-34
2022/03/30 12:54:41;;;;;;;7.45;1.48;;;9.20;86.20;;;;;;5008853;28;20042;-34
2022/03/30 12:57:07;;;;;;;3.13;1.20;;;9.10;87.30;;;;;;5009198;28;20139;-34
2022/03/30 12:59:34;;;;;;;4.78;1.20;;;9.20;87.80;;;;;;5008947;28;20041;-34